This is the latest recevied weather packets stored in our database for station/object OH2HCY. If no packets are shown the sender has not sent any weather packets the latest 10 day(s).
| Time | Temp. | Humidity | Pressure | Rain* | Wind** | Luminosity | Snow |
|---|---|---|---|---|---|---|---|
| 1777763905 | 7.78° C | 74% | 1004.6 hPa | - | - | - | - |
| 1777763380 | 7.78° C | 74% | 1004.7 hPa | - | - | - | - |
| 1777762860 | 7.78° C | 74% | 1004.7 hPa | - | - | - | - |
| 1777762325 | 7.78° C | 73% | 1004.7 hPa | - | - | - | - |
| 1777761780 | 7.78° C | 73% | 1004.8 hPa | - | - | - | - |
| 1777761240 | 7.78° C | 73% | 1004.9 hPa | - | - | - | - |
| 1777760680 | 7.78° C | 73% | 1005 hPa | - | - | - | - |
| 1777760130 | 7.78° C | 73% | 1005 hPa | - | - | - | - |
| 1777759584 | 7.78° C | 72% | 1005.1 hPa | - | - | - | - |
| 1777759080 | 8.33° C | 71% | 1004.9 hPa | - | - | - | - |
| 1777758535 | 8.33° C | 70% | 1004.9 hPa | - | - | - | - |
| 1777757970 | 8.89° C | 69% | 1004.9 hPa | - | - | - | - |
| 1777757420 | 8.89° C | 69% | 1005 hPa | - | - | - | - |
| 1777756875 | 8.89° C | 69% | 1005.1 hPa | - | - | - | - |
| 1777756345 | 8.89° C | 69% | 1005.1 hPa | - | - | - | - |
| 1777755805 | 8.89° C | 69% | 1005.2 hPa | - | - | - | - |
| 1777755283 | 8.89° C | 69% | 1005.2 hPa | - | - | - | - |
| 1777754795 | 8.89° C | 68% | 1005.2 hPa | - | - | - | - |
| 1777754260 | 9.44° C | 67% | 1005.1 hPa | - | - | - | - |
| 1777753720 | 10° C | 66% | 1005.1 hPa | - | - | - | - |
| 1777753170 | 10° C | 65% | 1005 hPa | - | - | - | - |
| 1777752590 | 10.56° C | 63% | 1004.8 hPa | - | - | - | - |
| 1777752030 | 11.11° C | 60% | 1004.5 hPa | - | - | - | - |
| 1777751520 | 12.22° C | 57% | 1004 hPa | - | - | - | - |
| 1777750950 | 13.33° C | 53% | 1003.8 hPa | - | - | - | - |
* Rain since midnight (hover to see other rain measurements)
** Current wind speed in m/s (hover to see current wind gust speed)